Time;durP1;ratioP1;P1;durP2;ratioP2;P2;SDS_P1;SDS_P2;PMS_P1;PMS_P2;Temp;Humidity;BMP_temperature;BMP_pressure;BME280_temperature;BME280_humidity;BME280_pressure;Samples;Min_cycle;Max_cycle;Signal;HPM_P1;HPM_P2
2021/10/31 00:00:35;;;;;;;3.47;3.17;;;17.50;57.20;;;;;;5038560;28;20952;-48
2021/10/31 00:03:01;;;;;;;4.10;3.70;;;17.50;57.30;;;;;;5041735;28;20239;-51
2021/10/31 00:05:26;;;;;;;4.60;4.20;;;17.60;57.20;;;;;;5044623;28;20197;-49
2021/10/31 00:07:52;;;;;;;4.20;3.77;;;17.70;57.20;;;;;;5042807;28;20266;-49
2021/10/31 00:10:20;;;;;;;7.90;3.80;;;17.70;57.40;;;;;;5047088;28;20295;-50
2021/10/31 00:12:45;;;;;;;4.90;3.93;;;17.90;57.20;;;;;;5046752;28;20246;-50
2021/10/31 00:15:11;;;;;;;3.73;3.43;;;17.90;57.10;;;;;;5047874;28;20863;-48
2021/10/31 00:17:37;;;;;;;5.33;4.83;;;17.90;57.00;;;;;;5058623;28;20258;-48
2021/10/31 00:20:07;;;;;;;6.40;5.23;;;17.80;57.70;;;;;;5059834;28;20252;-48
2021/10/31 00:22:33;;;;;;;7.10;6.40;;;17.70;57.40;;;;;;5050054;28;20656;-50
2021/10/31 00:24:59;;;;;;;7.00;6.30;;;17.70;58.10;;;;;;5046762;28;20447;-50
2021/10/31 00:27:24;;;;;;;6.13;5.63;;;17.70;58.60;;;;;;5053621;28;20437;-52
2021/10/31 00:29:50;;;;;;;4.73;4.23;;;17.70;58.40;;;;;;5056595;28;20556;-52
2021/10/31 00:32:16;;;;;;;5.03;3.90;;;17.50;58.50;;;;;;5041282;28;20193;-47
2021/10/31 00:34:41;;;;;;;6.33;4.60;;;17.60;58.80;;;;;;5055555;28;20265;-48
2021/10/31 00:37:07;;;;;;;3.70;3.40;;;17.50;58.70;;;;;;5056537;28;20205;-47
2021/10/31 00:39:32;;;;;;;3.23;2.90;;;17.60;59.00;;;;;;5047060;28;20196;-52
2021/10/31 00:41:58;;;;;;;6.60;6.10;;;17.80;58.70;;;;;;5055741;28;20679;-50
2021/10/31 00:44:24;;;;;;;5.37;4.87;;;17.50;59.10;;;;;;5050910;28;20195;-49
2021/10/31 00:46:50;;;;;;;5.50;4.70;;;17.70;59.00;;;;;;5051735;28;20202;-49
2021/10/31 00:49:16;;;;;;;4.67;3.77;;;17.90;58.80;;;;;;5047726;28;20235;-49
2021/10/31 00:51:41;;;;;;;3.70;3.40;;;17.80;58.80;;;;;;5048293;28;20434;-50
2021/10/31 00:54:08;;;;;;;3.97;3.63;;;17.90;59.20;;;;;;5052841;28;20192;-52
2021/10/31 00:56:34;;;;;;;3.60;3.30;;;17.80;59.20;;;;;;5045124;28;20201;-51
2021/10/31 00:59:00;;;;;;;4.00;3.70;;;17.80;59.20;;;;;;5045338;28;20442;-50
2021/10/31 01:01:28;;;;;;;3.53;3.07;;;17.90;59.00;;;;;;5051658;28;20541;-48
2021/10/31 01:03:56;;;;;;;4.83;4.33;;;18.10;58.80;;;;;;5047158;28;20191;-50
2021/10/31 01:06:46;;;;;;;4.33;3.93;;;18.00;58.90;;;;;;5050238;28;20454;-48
2021/10/31 01:09:30;;;;;;;5.20;4.70;;;18.00;58.80;;;;;;5042708;28;20583;-52
2021/10/31 01:12:07;;;;;;;3.93;3.63;;;18.00;58.60;;;;;;5049025;28;20483;-49
2021/10/31 01:14:58;;;;;;;3.30;3.10;;;17.90;58.80;;;;;;5047397;28;20471;-52
2021/10/31 01:17:38;;;;;;;4.47;3.60;;;17.90;58.70;;;;;;5051779;28;20454;-47
2021/10/31 01:20:22;;;;;;;5.23;4.70;;;18.00;58.40;;;;;;5044815;28;20481;-50
2021/10/31 01:22:57;;;;;;;4.73;4.33;;;17.90;58.50;;;;;;5047254;28;20442;-49
2021/10/31 01:26:13;;;;;;;5.40;5.00;;;17.90;58.60;;;;;;5052902;28;20535;-50
2021/10/31 01:28:56;;;;;;;6.27;4.17;;;17.90;58.50;;;;;;5024809;28;20483;-51
2021/10/31 01:31:36;;;;;;;3.97;3.07;;;17.90;58.40;;;;;;5044402;28;20455;-52
2021/10/31 01:34:18;;;;;;;4.00;3.70;;;17.80;58.30;;;;;;5052229;28;20536;-49
2021/10/31 01:36:56;;;;;;;4.13;3.60;;;17.70;58.20;;;;;;5066906;28;20529;-49
2021/10/31 01:39:36;;;;;;;5.77;4.57;;;17.70;58.30;;;;;;5050829;28;20442;-53
2021/10/31 01:42:25;;;;;;;4.33;3.93;;;17.60;58.20;;;;;;5041400;28;20823;-51
2021/10/31 01:45:02;;;;;;;5.53;3.83;;;17.40;58.30;;;;;;5047136;28;20515;-52
2021/10/31 01:47:38;;;;;;;3.70;3.40;;;17.50;58.40;;;;;;5051221;28;21164;-52
2021/10/31 01:50:22;;;;;;;4.57;4.17;;;17.40;58.10;;;;;;5046177;28;20520;-51
2021/10/31 01:52:54;;;;;;;4.50;4.10;;;17.50;58.00;;;;;;5050858;28;20473;-52
2021/10/31 01:55:29;;;;;;;5.57;4.13;;;17.40;58.50;;;;;;5050318;28;20458;-51
2021/10/31 01:57:57;;;;;;;7.00;4.80;;;17.30;58.80;;;;;;5042944;28;20480;-50
2021/10/31 02:00:24;;;;;;;6.97;4.60;;;17.10;59.80;;;;;;5040720;28;20428;-48
2021/10/31 02:02:50;;;;;;;5.43;4.93;;;17.20;58.90;;;;;;5046770;28;21125;-50
2021/10/31 02:05:20;;;;;;;7.93;6.50;;;17.30;58.50;;;;;;5066589;28;20945;-52
2021/10/31 02:07:50;;;;;;;12.70;6.67;;;17.40;58.40;;;;;;5041248;28;20570;-51
2021/10/31 02:10:17;;;;;;;6.03;4.87;;;17.40;58.40;;;;;;5043772;28;20436;-47
2021/10/31 02:12:46;;;;;;;6.00;5.40;;;17.30;58.50;;;;;;5046228;28;20467;-51
2021/10/31 02:15:13;;;;;;;7.20;6.50;;;17.10;58.70;;;;;;5035873;28;20781;-52
2021/10/31 02:17:39;;;;;;;6.80;6.03;;;17.10;59.10;;;;;;5043189;28;21254;-47
2021/10/31 02:20:06;;;;;;;6.27;5.47;;;16.70;59.70;;;;;;5034775;28;20467;-50
2021/10/31 02:22:33;;;;;;;8.33;5.90;;;16.60;60.00;;;;;;5044019;28;20440;-51
2021/10/31 02:25:03;;;;;;;10.23;6.67;;;16.60;60.30;;;;;;5036010;28;20440;-50
2021/10/31 02:27:33;;;;;;;6.07;5.47;;;16.70;59.90;;;;;;5039790;28;20544;-51
2021/10/31 02:30:00;;;;;;;6.27;5.23;;;16.80;59.70;;;;;;5043824;28;20520;-51
2021/10/31 02:32:29;;;;;;;5.87;5.37;;;16.70;59.80;;;;;;5037246;28;20436;-47
2021/10/31 02:34:55;;;;;;;6.50;5.27;;;16.70;60.90;;;;;;5045087;28;20438;-48
2021/10/31 02:37:25;;;;;;;6.60;6.00;;;16.40;60.60;;;;;;5034062;28;21093;-51
2021/10/31 02:39:51;;;;;;;6.73;6.03;;;16.30;61.50;;;;;;5037550;28;20478;-52
2021/10/31 02:42:16;;;;;;;6.03;5.50;;;16.10;63.00;;;;;;5041502;28;20936;-48
2021/10/31 02:44:43;;;;;;;5.87;5.00;;;15.90;62.90;;;;;;5034174;28;20435;-50
2021/10/31 02:47:36;;;;;;;7.03;4.70;;;15.90;63.90;;;;;;5038365;28;20598;-51
2021/10/31 02:50:04;;;;;;;5.70;5.20;;;16.00;63.20;;;;;;5040038;28;20538;-52
2021/10/31 02:52:57;;;;;;;6.07;5.47;;;16.10;62.80;;;;;;5046341;28;20530;-48
2021/10/31 02:55:43;;;;;;;14.30;9.17;;;16.10;62.10;;;;;;5039736;28;20456;-52
2021/10/31 02:58:20;;;;;;;12.50;9.20;;;15.70;63.50;;;;;;5041234;28;20456;-52
2021/10/31 03:00:51;;;;;;;6.80;6.10;;;15.70;64.00;;;;;;5040966;28;20435;-50
2021/10/31 03:03:17;;;;;;;5.50;5.00;;;15.60;64.90;;;;;;5038828;28;20427;-49
2021/10/31 03:05:48;;;;;;;5.80;5.30;;;15.50;64.60;;;;;;5046704;28;20438;-50
2021/10/31 03:08:14;;;;;;;6.20;5.60;;;15.60;64.60;;;;;;5038157;28;20227;-52
2021/10/31 03:10:50;;;;;;;5.57;5.07;;;15.70;64.20;;;;;;5044215;28;20442;-51
2021/10/31 03:13:15;;;;;;;6.37;5.60;;;15.80;63.90;;;;;;5044888;28;20180;-52
2021/10/31 03:15:41;;;;;;;6.50;5.13;;;15.60;64.20;;;;;;5034824;28;20440;-52
2021/10/31 03:18:06;;;;;;;6.80;6.10;;;15.80;63.90;;;;;;5039169;28;20197;-51
2021/10/31 03:20:32;;;;;;;11.30;8.50;;;15.80;63.80;;;;;;5042306;28;20562;-49
2021/10/31 03:22:57;;;;;;;13.27;9.77;;;15.60;64.50;;;;;;5044179;28;20192;-47
2021/10/31 03:25:23;;;;;;;8.40;7.60;;;15.70;64.60;;;;;;5047992;28;20196;-51
2021/10/31 03:27:51;;;;;;;7.70;6.37;;;15.80;63.70;;;;;;5045840;28;20652;-50
2021/10/31 03:30:18;;;;;;;7.23;6.13;;;15.90;63.40;;;;;;5051312;28;20704;-52
2021/10/31 03:32:44;;;;;;;7.00;6.30;;;16.10;63.00;;;;;;5044434;28;20435;-52
2021/10/31 03:35:09;;;;;;;7.23;6.50;;;16.10;62.50;;;;;;5046192;28;20484;-51
2021/10/31 03:37:35;;;;;;;6.87;6.17;;;16.10;62.30;;;;;;5041068;28;22693;-50
2021/10/31 03:40:00;;;;;;;6.47;5.90;;;15.80;63.50;;;;;;5045910;28;20191;-49
2021/10/31 03:42:26;;;;;;;7.07;6.47;;;15.60;64.10;;;;;;5042242;28;20261;-52
2021/10/31 03:44:52;;;;;;;7.00;6.30;;;15.50;64.70;;;;;;5035986;28;20185;-52
2021/10/31 03:47:21;;;;;;;6.03;5.53;;;15.30;65.30;;;;;;5043317;28;20569;-47
2021/10/31 03:49:47;;;;;;;7.00;6.40;;;15.40;65.20;;;;;;5045740;28;20201;-51
2021/10/31 03:52:13;;;;;;;6.30;5.70;;;15.60;64.80;;;;;;5057005;28;20840;-48
2021/10/31 03:54:39;;;;;;;7.10;6.40;;;15.70;64.20;;;;;;5048885;28;20451;-52
2021/10/31 03:57:05;;;;;;;8.53;5.70;;;15.70;64.40;;;;;;5051906;28;20438;-51
2021/10/31 03:59:31;;;;;;;7.83;6.40;;;15.60;64.20;;;;;;5048872;28;20231;-49
2021/10/31 04:01:56;;;;;;;7.10;6.33;;;15.50;64.60;;;;;;5051019;28;20465;-50
2021/10/31 04:04:22;;;;;;;10.10;6.80;;;15.40;64.50;;;;;;5051120;28;20681;-48
2021/10/31 04:06:47;;;;;;;7.60;6.80;;;15.30;64.90;;;;;;5055165;28;20192;-48
2021/10/31 04:09:13;;;;;;;6.53;5.97;;;15.10;65.20;;;;;;5043473;28;20277;-50
2021/10/31 04:11:38;;;;;;;7.70;5.80;;;15.00;66.30;;;;;;5050684;28;20271;-51
2021/10/31 04:14:04;;;;;;;7.07;6.37;;;14.80;67.20;;;;;;5051387;28;20192;-52
2021/10/31 04:16:30;;;;;;;7.10;6.40;;;14.80;67.10;;;;;;5047915;28;20292;-49
2021/10/31 04:18:55;;;;;;;7.77;6.97;;;14.80;67.10;;;;;;5044454;28;20235;-50
2021/10/31 04:21:21;;;;;;;7.57;6.77;;;14.90;66.70;;;;;;5047556;28;20566;-49
2021/10/31 04:23:47;;;;;;;6.03;5.53;;;14.90;66.60;;;;;;5048984;28;20238;-51
2021/10/31 04:26:13;;;;;;;7.00;5.83;;;14.80;66.80;;;;;;5047509;28;21716;-50
2021/10/31 04:28:38;;;;;;;6.60;5.93;;;14.60;67.60;;;;;;5052034;28;20246;-51
2021/10/31 04:31:04;;;;;;;7.03;6.20;;;14.50;68.00;;;;;;5054977;28;20683;-52
2021/10/31 04:33:30;;;;;;;8.23;5.37;;;14.40;68.10;;;;;;5054734;28;20201;-48
2021/10/31 04:35:55;;;;;;;6.60;5.73;;;14.40;68.40;;;;;;5047709;28;20217;-47
2021/10/31 04:38:24;;;;;;;6.53;5.93;;;14.30;68.40;;;;;;5045343;28;20203;-53
2021/10/31 04:40:51;;;;;;;9.10;6.00;;;14.50;68.60;;;;;;5042323;28;20248;-52
2021/10/31 04:43:17;;;;;;;6.87;6.17;;;14.70;67.80;;;;;;5055000;28;20589;-52
2021/10/31 04:45:44;;;;;;;6.53;5.83;;;14.90;66.80;;;;;;5044930;28;20462;-48
2021/10/31 04:48:11;;;;;;;6.43;5.83;;;15.00;66.10;;;;;;5035139;28;20528;-52
2021/10/31 04:50:37;;;;;;;12.90;6.57;;;15.10;65.60;;;;;;5049209;28;20435;-48
2021/10/31 04:53:05;;;;;;;6.27;5.67;;;15.00;65.50;;;;;;5044373;28;21012;-50
2021/10/31 04:55:31;;;;;;;5.87;5.33;;;15.00;65.90;;;;;;5047176;28;20494;-49
2021/10/31 04:57:57;;;;;;;6.33;5.70;;;14.80;65.80;;;;;;5049618;28;20443;-50
2021/10/31 05:00:23;;;;;;;6.70;5.60;;;14.70;66.30;;;;;;5057341;28;20449;-51
2021/10/31 05:02:48;;;;;;;9.30;6.57;;;14.40;67.20;;;;;;5050124;28;20538;-50
2021/10/31 05:05:14;;;;;;;6.50;5.90;;;14.20;68.70;;;;;;5050000;28;20442;-51
2021/10/31 05:07:40;;;;;;;6.60;6.00;;;14.10;69.20;;;;;;5054546;28;20199;-47
2021/10/31 05:10:07;;;;;;;7.73;6.90;;;13.90;69.80;;;;;;5043549;28;20664;-49
2021/10/31 05:12:32;;;;;;;7.23;6.37;;;13.80;70.60;;;;;;5045301;28;20485;-51
2021/10/31 05:14:58;;;;;;;6.03;5.53;;;13.80;70.80;;;;;;5050833;28;20852;-52
2021/10/31 05:17:23;;;;;;;8.33;6.13;;;13.70;71.20;;;;;;5054845;28;20203;-51
2021/10/31 05:19:49;;;;;;;7.73;5.67;;;13.70;71.60;;;;;;5063417;28;20993;-52
2021/10/31 05:22:14;;;;;;;6.50;5.80;;;13.80;71.50;;;;;;5049067;28;20205;-52
2021/10/31 05:24:40;;;;;;;6.33;5.47;;;13.90;71.20;;;;;;5058440;28;20200;-52
2021/10/31 05:27:06;;;;;;;5.40;4.90;;;14.10;70.50;;;;;;5051949;28;20679;-51
2021/10/31 05:29:31;;;;;;;5.27;4.87;;;14.10;70.00;;;;;;5050928;28;20227;-52
2021/10/31 05:31:57;;;;;;;6.20;5.20;;;14.20;70.30;;;;;;5053262;28;20557;-52
2021/10/31 05:34:23;;;;;;;5.37;4.87;;;14.30;69.70;;;;;;5049266;28;20720;-52
2021/10/31 05:36:49;;;;;;;6.47;5.40;;;14.50;69.00;;;;;;5052311;28;20698;-48
2021/10/31 05:39:14;;;;;;;31.00;16.30;;;14.60;68.70;;;;;;5051161;28;20200;-52
2021/10/31 05:41:40;;;;;;;14.70;9.43;;;14.60;68.70;;;;;;5047518;28;20193;-52
2021/10/31 05:44:05;;;;;;;6.90;5.97;;;14.60;68.40;;;;;;5046392;28;20250;-52
2021/10/31 05:46:32;;;;;;;5.67;5.17;;;14.40;68.80;;;;;;5042166;28;20196;-50
2021/10/31 05:48:59;;;;;;;6.27;5.77;;;14.20;69.40;;;;;;5042638;28;20654;-49
2021/10/31 05:51:24;;;;;;;6.10;5.60;;;14.00;70.10;;;;;;5051058;28;20949;-49
2021/10/31 05:53:50;;;;;;;8.17;5.60;;;13.90;70.70;;;;;;5048252;28;20439;-48
2021/10/31 05:56:16;;;;;;;6.93;5.27;;;14.10;70.50;;;;;;5044308;28;20712;-48
2021/10/31 05:58:41;;;;;;;7.27;5.43;;;14.30;70.70;;;;;;5051397;28;20204;-51
2021/10/31 06:01:07;;;;;;;6.43;5.57;;;14.50;70.20;;;;;;5050102;28;20235;-51
2021/10/31 06:03:33;;;;;;;8.33;7.47;;;14.80;69.70;;;;;;5047666;28;20284;-50
2021/10/31 06:06:00;;;;;;;10.77;7.83;;;15.10;69.00;;;;;;5040909;28;20531;-51
2021/10/31 06:08:26;;;;;;;10.77;8.23;;;15.30;68.10;;;;;;5050621;28;20245;-52
2021/10/31 06:10:53;;;;;;;7.40;6.60;;;15.30;66.60;;;;;;5051286;28;20978;-51
2021/10/31 06:13:19;;;;;;;6.00;5.40;;;15.50;66.40;;;;;;5054832;28;20193;-47
2021/10/31 06:15:46;;;;;;;7.10;6.40;;;15.70;65.80;;;;;;5054560;28;20439;-48
2021/10/31 06:18:18;;;;;;;6.30;5.70;;;15.80;65.20;;;;;;5043444;28;20452;-51
2021/10/31 06:20:45;;;;;;;6.57;5.50;;;15.90;64.30;;;;;;5049891;28;20879;-52
2021/10/31 06:23:11;;;;;;;6.90;5.77;;;15.90;63.30;;;;;;5038393;28;20966;-49
2021/10/31 06:25:37;;;;;;;6.80;5.17;;;15.90;63.00;;;;;;5050610;28;20466;-52
2021/10/31 06:28:03;;;;;;;10.07;5.00;;;16.10;62.80;;;;;;5050805;28;20490;-53
2021/10/31 06:30:29;;;;;;;5.00;4.60;;;16.20;62.10;;;;;;5056789;28;20198;-50
2021/10/31 06:32:54;;;;;;;5.37;4.87;;;16.10;60.90;;;;;;5050426;28;20435;-52
2021/10/31 06:35:20;;;;;;;5.80;5.20;;;15.90;62.70;;;;;;5039461;28;20199;-52
2021/10/31 06:37:48;;;;;;;5.60;5.00;;;16.10;62.70;;;;;;5040403;28;20560;-47
2021/10/31 06:40:13;;;;;;;5.20;4.70;;;16.40;62.70;;;;;;5041368;28;20303;-51
2021/10/31 06:42:39;;;;;;;4.37;3.97;;;16.80;60.30;;;;;;5052832;28;20523;-52
2021/10/31 06:45:05;;;;;;;5.00;4.50;;;17.10;59.10;;;;;;5047042;28;20298;-47
2021/10/31 06:47:31;;;;;;;5.13;4.63;;;17.00;59.80;;;;;;5047024;28;20192;-50
2021/10/31 06:49:59;;;;;;;5.30;4.70;;;17.20;59.30;;;;;;5040788;28;20533;-50
2021/10/31 06:52:24;;;;;;;5.20;4.70;;;17.50;58.30;;;;;;5054475;28;20496;-46
2021/10/31 06:54:51;;;;;;;4.83;4.50;;;17.80;57.50;;;;;;5047068;28;20431;-51
2021/10/31 06:57:16;;;;;;;4.53;4.10;;;18.10;56.60;;;;;;5046889;28;20549;-48
2021/10/31 06:59:42;;;;;;;5.40;4.90;;;18.30;56.10;;;;;;5041834;28;20426;-48
2021/10/31 07:02:07;;;;;;;5.00;4.50;;;18.20;55.70;;;;;;5046691;28;20699;-49
2021/10/31 07:04:34;;;;;;;4.73;4.33;;;18.00;56.30;;;;;;5055178;28;20203;-47
2021/10/31 07:07:00;;;;;;;4.47;4.13;;;17.90;56.40;;;;;;5054488;28;20192;-52
2021/10/31 07:09:26;;;;;;;4.70;4.30;;;18.00;56.20;;;;;;5045366;28;20486;-47
2021/10/31 07:11:51;;;;;;;4.20;3.90;;;18.20;56.30;;;;;;5041645;28;20618;-47
2021/10/31 07:14:17;;;;;;;4.23;3.93;;;18.30;56.00;;;;;;5044641;28;20203;-52
2021/10/31 07:16:43;;;;;;;4.20;3.90;;;18.50;55.70;;;;;;5041920;28;20669;-47
2021/10/31 07:19:09;;;;;;;5.10;4.70;;;18.60;55.40;;;;;;5047754;28;20242;-51
2021/10/31 07:21:35;;;;;;;4.80;4.40;;;18.80;54.90;;;;;;5038538;28;20201;-50
2021/10/31 07:24:01;;;;;;;5.67;5.17;;;18.90;54.60;;;;;;5040279;28;20431;-50
2021/10/31 07:26:26;;;;;;;4.43;4.10;;;19.00;54.20;;;;;;5044606;28;20204;-51
2021/10/31 07:28:52;;;;;;;4.80;4.40;;;19.10;53.90;;;;;;5042938;28;20224;-51
2021/10/31 07:31:19;;;;;;;5.23;4.77;;;19.20;53.60;;;;;;5048746;28;20220;-48
2021/10/31 07:33:45;;;;;;;5.30;4.80;;;19.30;53.60;;;;;;5042653;28;20192;-48
2021/10/31 07:36:10;;;;;;;6.10;4.63;;;19.30;53.50;;;;;;5040801;28;20470;-49
2021/10/31 07:38:39;;;;;;;4.90;4.50;;;19.20;53.20;;;;;;5044320;28;20224;-48
2021/10/31 07:41:05;;;;;;;4.60;4.30;;;19.20;53.30;;;;;;5043258;28;20197;-48
2021/10/31 07:43:30;;;;;;;5.40;5.00;;;19.20;53.40;;;;;;5043170;28;20431;-49
2021/10/31 07:45:56;;;;;;;5.43;4.93;;;19.20;53.50;;;;;;5037225;28;20618;-52
2021/10/31 07:48:21;;;;;;;5.57;5.07;;;19.10;53.40;;;;;;5040717;28;20224;-50
2021/10/31 07:50:47;;;;;;;5.10;4.70;;;19.20;53.50;;;;;;5045004;28;20615;-50
2021/10/31 07:53:13;;;;;;;5.53;5.03;;;19.20;53.40;;;;;;5042375;28;20220;-50
2021/10/31 07:55:41;;;;;;;5.50;5.00;;;19.20;53.30;;;;;;5041101;28;20197;-50
2021/10/31 07:58:08;;;;;;;4.97;4.57;;;19.20;53.30;;;;;;5047999;28;20231;-52
2021/10/31 08:00:35;;;;;;;6.40;5.87;;;19.20;53.60;;;;;;5046981;28;20439;-49
2021/10/31 08:03:00;;;;;;;6.50;6.00;;;19.20;53.60;;;;;;5047828;28;20428;-52
2021/10/31 08:05:27;;;;;;;7.20;6.50;;;19.10;53.60;;;;;;5039230;28;20574;-52
2021/10/31 08:07:54;;;;;;;6.73;6.13;;;19.20;53.70;;;;;;5043572;28;20229;-52
2021/10/31 08:10:20;;;;;;;5.97;5.47;;;19.20;53.80;;;;;;5047709;28;20478;-49
2021/10/31 08:12:47;;;;;;;6.20;5.10;;;19.10;54.00;;;;;;5046228;28;20453;-52
2021/10/31 08:15:13;;;;;;;5.10;4.70;;;18.90;54.50;;;;;;5051769;28;20838;-46
2021/10/31 08:17:39;;;;;;;5.40;4.90;;;18.50;55.20;;;;;;5056763;28;20443;-51
2021/10/31 08:20:05;;;;;;;5.60;5.20;;;18.30;55.70;;;;;;5045594;28;21043;-51
2021/10/31 08:22:31;;;;;;;4.97;4.57;;;18.20;55.80;;;;;;5047909;28;20677;-48
2021/10/31 08:24:57;;;;;;;5.10;4.60;;;18.20;56.10;;;;;;5041919;28;20435;-52
2021/10/31 08:27:23;;;;;;;4.97;4.57;;;18.20;56.10;;;;;;5042506;28;20835;-52
2021/10/31 08:29:50;;;;;;;5.27;4.83;;;18.00;56.10;;;;;;5050608;28;20494;-47
2021/10/31 08:32:16;;;;;;;5.27;4.87;;;17.80;56.80;;;;;;5041975;28;20193;-47
2021/10/31 08:34:42;;;;;;;6.90;4.33;;;17.70;56.70;;;;;;5043998;28;20988;-48
2021/10/31 08:37:07;;;;;;;6.63;6.03;;;17.70;57.10;;;;;;5041519;28;20423;-48
2021/10/31 08:39:33;;;;;;;6.33;5.83;;;17.70;56.90;;;;;;5039073;28;20188;-51
2021/10/31 08:41:59;;;;;;;5.97;5.37;;;17.60;56.90;;;;;;5040176;28;20552;-50
2021/10/31 08:44:25;;;;;;;5.37;4.87;;;17.80;57.10;;;;;;5047431;28;20273;-48
2021/10/31 08:46:51;;;;;;;5.67;5.17;;;17.90;56.80;;;;;;5051364;28;20906;-47
2021/10/31 08:49:19;;;;;;;6.87;5.90;;;18.00;56.70;;;;;;5044767;28;20525;-47
2021/10/31 08:51:45;;;;;;;6.00;5.40;;;18.10;56.50;;;;;;5051698;28;20419;-48
2021/10/31 08:54:10;;;;;;;5.80;5.30;;;18.30;56.90;;;;;;5050533;28;20443;-49
2021/10/31 08:56:36;;;;;;;6.10;5.30;;;18.40;56.10;;;;;;5051801;28;20188;-47
2021/10/31 08:59:02;;;;;;;5.37;4.87;;;18.50;56.20;;;;;;5039234;28;20197;-50
2021/10/31 09:01:28;;;;;;;5.47;4.93;;;18.40;56.10;;;;;;5052283;28;20183;-51
2021/10/31 09:03:54;;;;;;;5.47;5.00;;;18.40;56.50;;;;;;5049975;28;21360;-48
2021/10/31 09:06:25;;;;;;;6.47;5.63;;;18.50;56.50;;;;;;5052092;28;20525;-49
2021/10/31 09:08:50;;;;;;;5.73;5.23;;;18.60;56.50;;;;;;5046160;28;20693;-52
2021/10/31 09:11:16;;;;;;;5.60;5.10;;;18.60;56.10;;;;;;5044701;28;20528;-51
2021/10/31 09:13:42;;;;;;;5.20;4.70;;;18.60;56.40;;;;;;5047639;28;20535;-47
2021/10/31 09:16:08;;;;;;;5.00;4.50;;;18.70;56.70;;;;;;5058839;28;20286;-48
2021/10/31 09:18:34;;;;;;;8.07;4.40;;;18.60;57.10;;;;;;5024073;28;1085646;-47
2021/10/31 09:21:01;;;;;;;5.07;4.60;;;18.80;56.90;;;;;;5040654;28;20184;-51
2021/10/31 09:23:27;;;;;;;5.17;3.80;;;19.00;56.70;;;;;;5048550;28;20455;-47
2021/10/31 09:25:53;;;;;;;3.70;3.40;;;18.90;56.70;;;;;;5052484;28;20415;-50
2021/10/31 09:28:19;;;;;;;4.23;3.93;;;18.70;57.50;;;;;;5049928;28;20617;-52
2021/10/31 09:30:45;;;;;;;4.33;3.93;;;19.00;57.50;;;;;;5051473;28;20438;-48
2021/10/31 09:33:12;;;;;;;5.40;3.80;;;19.20;57.50;;;;;;5051265;28;20203;-51
2021/10/31 09:35:52;;;;;;;3.03;2.83;;;19.30;57.00;;;;;;5051955;28;20640;-51
2021/10/31 09:38:19;;;;;;;6.83;3.90;;;19.20;56.70;;;;;;5047498;28;20435;-50
2021/10/31 09:40:46;;;;;;;4.00;3.60;;;19.40;56.70;;;;;;5046109;28;20493;-51
2021/10/31 09:43:12;;;;;;;3.97;3.50;;;19.60;56.60;;;;;;5040800;28;20443;-51
2021/10/31 09:45:38;;;;;;;3.90;3.60;;;19.70;56.00;;;;;;5048994;28;20851;-52
2021/10/31 09:48:09;;;;;;;4.17;3.67;;;19.80;55.90;;;;;;5045940;28;20254;-49
2021/10/31 09:50:40;;;;;;;3.70;3.40;;;20.00;55.80;;;;;;5045347;28;20427;-53
2021/10/31 09:53:07;;;;;;;4.63;3.50;;;20.40;55.60;;;;;;5048435;28;20905;-51
2021/10/31 09:55:32;;;;;;;3.73;3.43;;;20.50;55.00;;;;;;5051883;28;20455;-50
2021/10/31 09:58:00;;;;;;;3.40;3.10;;;20.80;54.60;;;;;;5052771;28;20475;-52
2021/10/31 10:00:39;;;;;;;4.13;3.83;;;21.10;53.70;;;;;;5048302;28;20196;-49
2021/10/31 10:03:37;;;;;;;4.40;4.00;;;21.20;53.30;;;;;;5047098;28;20447;-51
2021/10/31 10:06:14;;;;;;;4.43;4.03;;;21.40;52.80;;;;;;5045441;28;20485;-48
2021/10/31 10:08:59;;;;;;;4.43;4.03;;;21.70;53.10;;;;;;5035532;28;20479;-49
2021/10/31 10:11:26;;;;;;;3.93;3.63;;;22.10;52.80;;;;;;5041920;28;20435;-50
2021/10/31 10:13:52;;;;;;;4.27;3.87;;;22.40;52.50;;;;;;5044163;28;20509;-49
2021/10/31 10:16:30;;;;;;;3.57;3.27;;;22.50;51.30;;;;;;5042407;28;20452;-49
2021/10/31 10:18:59;;;;;;;3.93;3.63;;;22.70;51.30;;;;;;5039515;28;20264;-50
2021/10/31 10:21:30;;;;;;;4.10;3.80;;;22.70;50.90;;;;;;5040873;28;20439;-49
2021/10/31 10:24:00;;;;;;;3.40;3.13;;;22.90;50.80;;;;;;5038096;28;20444;-54
2021/10/31 10:26:33;;;;;;;3.60;3.20;;;23.20;50.60;;;;;;5045759;28;20443;-53
2021/10/31 10:29:08;;;;;;;4.20;3.90;;;23.40;50.00;;;;;;5040300;28;20571;-51
2021/10/31 10:31:34;;;;;;;3.83;3.50;;;23.50;49.60;;;;;;5040228;28;20531;-49
2021/10/31 10:34:00;;;;;;;3.90;3.60;;;23.60;49.50;;;;;;5039237;28;20464;-46
2021/10/31 10:36:26;;;;;;;3.80;3.30;;;23.60;49.40;;;;;;5045298;28;20632;-51
2021/10/31 10:39:11;;;;;;;3.07;2.87;;;23.80;50.30;;;;;;5038144;28;20458;-49
2021/10/31 10:41:46;;;;;;;4.30;3.90;;;23.80;48.50;;;;;;5037814;28;20990;-47
2021/10/31 10:44:22;;;;;;;2.40;2.20;;;24.10;48.50;;;;;;5039616;28;20463;-50
2021/10/31 10:46:53;;;;;;;2.90;2.70;;;24.40;48.30;;;;;;5032484;28;21347;-49
2021/10/31 10:49:20;;;;;;;3.40;3.20;;;24.60;46.60;;;;;;5041961;28;20577;-51
2021/10/31 10:52:08;;;;;;;3.30;3.00;;;24.90;46.40;;;;;;5041359;28;20485;-46
2021/10/31 10:54:45;;;;;;;3.10;2.87;;;25.10;45.40;;;;;;5040674;28;20944;-52
2021/10/31 10:57:10;;;;;;;3.33;3.03;;;25.20;46.50;;;;;;5045737;28;20449;-47
2021/10/31 10:59:36;;;;;;;2.83;2.63;;;25.40;45.20;;;;;;5051078;28;21101;-48
2021/10/31 11:02:11;;;;;;;6.97;3.20;;;25.60;44.20;;;;;;5039077;28;20276;-48
2021/10/31 11:04:37;;;;;;;2.83;2.63;;;25.50;43.70;;;;;;5038865;28;20564;-50
2021/10/31 11:07:04;;;;;;;3.10;2.90;;;25.30;42.90;;;;;;5039018;28;20428;-51
2021/10/31 11:09:41;;;;;;;2.93;2.60;;;25.10;43.00;;;;;;5045992;28;20849;-48
2021/10/31 11:12:32;;;;;;;3.00;2.20;;;25.40;43.00;;;;;;5042030;28;20499;-48
2021/10/31 11:15:22;;;;;;;2.50;2.30;;;25.60;42.30;;;;;;5033353;28;20436;-49
2021/10/31 11:17:50;;;;;;;2.60;2.40;;;25.50;42.40;;;;;;5044785;28;20439;-50
2021/10/31 11:20:19;;;;;;;3.67;2.43;;;25.70;41.80;;;;;;5048883;28;20467;-50
2021/10/31 11:22:49;;;;;;;2.60;2.20;;;25.50;40.90;;;;;;5034701;28;20462;-49
2021/10/31 11:25:17;;;;;;;2.60;2.30;;;25.70;42.70;;;;;;5039041;28;20494;-51
2021/10/31 11:27:44;;;;;;;2.80;2.60;;;26.00;41.30;;;;;;5040284;28;20803;-50
2021/10/31 11:30:12;;;;;;;2.30;2.10;;;26.20;41.60;;;;;;5039945;28;20560;-47
2021/10/31 11:32:39;;;;;;;1.90;1.80;;;26.00;38.60;;;;;;5040552;28;20526;-50
2021/10/31 11:35:07;;;;;;;1.57;1.47;;;25.50;38.00;;;;;;5044005;28;20491;-48
2021/10/31 11:37:39;;;;;;;1.63;1.53;;;25.40;38.20;;;;;;5042205;28;20479;-49
2021/10/31 11:40:07;;;;;;;1.77;1.67;;;25.30;38.00;;;;;;5047697;28;20439;-48
2021/10/31 11:42:44;;;;;;;1.83;1.73;;;25.30;38.00;;;;;;5049338;28;20468;-48
2021/10/31 11:45:14;;;;;;;2.17;1.83;;;25.30;37.60;;;;;;5039673;28;20442;-48
2021/10/31 11:47:42;;;;;;;2.20;1.90;;;25.30;37.20;;;;;;5040747;28;20793;-47
2021/10/31 11:50:15;;;;;;;2.00;1.80;;;25.00;37.20;;;;;;5046569;28;20427;-50
2021/10/31 11:53:01;;;;;;;2.10;1.70;;;25.00;38.60;;;;;;5046047;28;20851;-48
2021/10/31 11:55:27;;;;;;;1.83;1.73;;;25.30;38.10;;;;;;5046036;28;20451;-47
2021/10/31 11:58:24;;;;;;;2.17;1.70;;;25.50;38.90;;;;;;5046374;28;20430;-51
2021/10/31 12:00:51;;;;;;;2.40;2.07;;;25.90;39.80;;;;;;5034289;28;20448;-48
2021/10/31 12:03:58;;;;;;;2.30;2.10;;;26.40;39.10;;;;;;5045281;28;20427;-48
2021/10/31 12:06:26;;;;;;;2.50;2.30;;;26.70;38.50;;;;;;5046703;28;20451;-49
2021/10/31 12:08:57;;;;;;;4.13;1.90;;;27.10;38.30;;;;;;5038782;28;20521;-48
2021/10/31 12:11:32;;;;;;;3.13;2.93;;;27.30;38.10;;;;;;5040767;28;20878;-50
2021/10/31 12:13:59;;;;;;;2.53;2.33;;;27.30;37.20;;;;;;5040637;28;20446;-51
2021/10/31 12:16:26;;;;;;;2.00;1.80;;;27.30;36.20;;;;;;5044103;28;21241;-51
2021/10/31 12:19:07;;;;;;;3.83;1.60;;;27.40;37.90;;;;;;5052903;28;20488;-50
2021/10/31 12:21:38;;;;;;;1.80;1.70;;;27.50;36.30;;;;;;5049296;28;20446;-50
2021/10/31 12:24:08;;;;;;;1.50;1.40;;;27.50;36.40;;;;;;5051354;28;20518;-50
2021/10/31 12:26:49;;;;;;;1.87;1.63;;;27.40;35.00;;;;;;5049862;28;21298;-51
2021/10/31 12:29:21;;;;;;;1.80;1.70;;;27.50;34.70;;;;;;5047067;28;20486;-51
2021/10/31 12:32:04;;;;;;;1.83;1.43;;;27.40;33.90;;;;;;5039435;28;20504;-48
2021/10/31 12:34:37;;;;;;;3.40;1.70;;;27.00;33.90;;;;;;5046441;28;20442;-48
2021/10/31 12:37:24;;;;;;;1.60;1.50;;;26.60;33.50;;;;;;5045996;28;20943;-49
2021/10/31 12:39:52;;;;;;;5.13;1.83;;;26.40;33.50;;;;;;5051611;28;20450;-52
2021/10/31 12:42:29;;;;;;;1.77;1.67;;;26.60;33.60;;;;;;5048969;28;20450;-50
2021/10/31 12:44:59;;;;;;;1.60;1.50;;;26.50;33.70;;;;;;5051900;28;20450;-49
2021/10/31 12:47:41;;;;;;;1.80;1.70;;;26.60;33.30;;;;;;5045827;28;20439;-52
2021/10/31 12:50:21;;;;;;;1.80;1.70;;;26.70;33.10;;;;;;5046223;28;20452;-52
2021/10/31 12:53:14;;;;;;;1.80;1.70;;;26.70;32.60;;;;;;5047662;28;20457;-48
2021/10/31 12:55:43;;;;;;;1.73;1.63;;;26.90;32.50;;;;;;5054128;28;20518;-49